Time;durP1;ratioP1;P1;durP2;ratioP2;P2;SDS_P1;SDS_P2;PMS_P1;PMS_P2;Temp;Humidity;BMP_temperature;BMP_pressure;BME280_temperature;BME280_humidity;BME280_pressure;Samples;Min_cycle;Max_cycle;Signal;HPM_P1;HPM_P2
2022/05/17 00:01:13;;;;;;;17.98;4.10;;;17.70;72.40;;;;;;9188030;19;20007;-73
2022/05/17 00:04:19;;;;;;;13.30;3.83;;;17.70;72.40;;;;;;9184321;19;20018;-73
2022/05/17 00:07:26;;;;;;;11.50;4.07;;;17.60;72.40;;;;;;9188134;19;20017;-74
2022/05/17 00:10:34;;;;;;;11.50;4.07;;;17.60;72.40;;;;;;9187673;19;20482;-74
2022/05/17 00:13:39;;;;;;;12.32;3.63;;;17.60;72.50;;;;;;9186946;19;20341;-73
2022/05/17 00:16:48;;;;;;;11.07;3.70;;;17.60;72.50;;;;;;9185132;19;20352;-74
2022/05/17 00:19:58;;;;;;;14.88;4.22;;;17.50;72.50;;;;;;9186322;19;20090;-74
2022/05/17 00:23:03;;;;;;;14.23;4.25;;;17.50;72.50;;;;;;9185133;19;20330;-74
2022/05/17 00:26:11;;;;;;;14.10;4.13;;;17.40;72.40;;;;;;9184486;19;20028;-74
2022/05/17 00:29:17;;;;;;;16.55;4.85;;;17.40;72.60;;;;;;9183239;19;20014;-73
2022/05/17 00:32:22;;;;;;;10.93;3.70;;;17.40;72.60;;;;;;9181409;19;20017;-73
2022/05/17 00:35:28;;;;;;;14.20;3.97;;;17.30;72.60;;;;;;9181870;19;20352;-74
2022/05/17 00:38:34;;;;;;;26.00;4.50;;;17.30;73.30;;;;;;9184111;19;20047;-74
2022/05/17 00:41:42;;;;;;;14.25;4.68;;;17.30;72.70;;;;;;9180670;19;20029;-72
2022/05/17 00:44:47;;;;;;;15.80;4.07;;;17.20;72.70;;;;;;9184181;19;20018;-73
2022/05/17 00:48:04;;;;;;;16.15;4.63;;;17.20;72.70;;;;;;9184010;19;20021;-74
2022/05/17 00:51:09;;;;;;;15.05;4.32;;;17.20;72.80;;;;;;9183304;19;20022;-73
2022/05/17 00:54:30;;;;;;;14.20;3.97;;;17.10;72.70;;;;;;9182627;19;20116;-74
2022/05/17 00:57:43;;;;;;;16.63;4.50;;;17.10;72.80;;;;;;9183363;19;20022;-73
2022/05/17 01:00:53;;;;;;;14.70;4.17;;;17.10;72.90;;;;;;9181704;19;20514;-74
2022/05/17 01:04:06;;;;;;;12.52;3.92;;;17.00;72.70;;;;;;9181775;19;20081;-75
2022/05/17 01:07:14;;;;;;;11.77;3.83;;;17.00;72.80;;;;;;9182715;19;20021;-74
2022/05/17 01:10:24;;;;;;;18.27;4.45;;;16.90;72.80;;;;;;9182806;19;20021;-74
2022/05/17 01:17:08;;;;;;;14.95;4.00;;;16.80;72.90;;;;;;9179105;19;20010;-74
2022/05/17 01:20:22;;;;;;;12.65;4.53;;;16.80;72.80;;;;;;9183285;19;20023;-74
2022/05/17 01:23:33;;;;;;;16.42;4.43;;;16.80;72.90;;;;;;9182129;19;20045;-73
2022/05/17 01:26:42;;;;;;;11.18;3.95;;;16.80;72.90;;;;;;9181992;19;20349;-74
2022/05/17 01:29:53;;;;;;;14.35;3.92;;;16.70;72.90;;;;;;9181455;19;20026;-75
2022/05/17 01:32:58;;;;;;;16.92;4.35;;;16.70;73.00;;;;;;9180806;19;20045;-74
2022/05/17 01:36:05;;;;;;;17.17;4.15;;;16.70;73.00;;;;;;9179930;19;20017;-74
2022/05/17 01:39:13;;;;;;;12.63;3.88;;;16.60;73.00;;;;;;9181934;19;20435;-75
2022/05/17 01:42:19;;;;;;;16.08;4.53;;;16.60;73.10;;;;;;9179752;19;20018;-75
2022/05/17 01:45:24;;;;;;;9.07;3.53;;;16.60;73.10;;;;;;9181897;19;20017;-73
2022/05/17 01:48:29;;;;;;;15.07;4.22;;;16.50;73.10;;;;;;9181248;19;20029;-72
2022/05/17 01:51:35;;;;;;;12.45;3.85;;;16.50;73.10;;;;;;9181818;19;20033;-74
2022/05/17 01:54:43;;;;;;;13.70;4.07;;;16.50;73.20;;;;;;9180354;19;20018;-74
2022/05/17 01:57:53;;;;;;;12.55;4.05;;;16.40;73.30;;;;;;9180600;19;20017;-74
2022/05/17 02:00:58;;;;;;;16.70;4.18;;;16.40;73.30;;;;;;9180323;19;20107;-72
2022/05/17 02:04:04;;;;;;;14.73;4.63;;;16.40;73.20;;;;;;9180868;19;20003;-73
2022/05/17 02:07:09;;;;;;;14.30;5.65;;;16.30;73.30;;;;;;9180653;19;20503;-74
2022/05/17 02:10:17;;;;;;;14.32;5.15;;;16.30;73.40;;;;;;9182736;19;20471;-74
2022/05/17 02:13:22;;;;;;;12.77;5.00;;;16.30;73.50;;;;;;9182670;19;20324;-73
2022/05/17 02:16:27;;;;;;;14.73;4.32;;;16.20;73.40;;;;;;9177938;19;20025;-74
2022/05/17 02:19:32;;;;;;;14.55;5.25;;;16.20;73.50;;;;;;9179907;19;20032;-74
2022/05/17 02:22:45;;;;;;;12.55;4.55;;;16.20;73.60;;;;;;9181819;19;20014;-75
2022/05/17 02:25:53;;;;;;;10.75;4.63;;;16.30;73.70;;;;;;9178426;19;20025;-74
2022/05/17 02:28:58;;;;;;;13.80;5.32;;;16.10;73.60;;;;;;9180605;19;20015;-74
2022/05/17 02:32:04;;;;;;;15.15;5.22;;;16.10;73.60;;;;;;9180291;19;20029;-72
2022/05/17 02:35:12;;;;;;;11.10;4.97;;;16.10;73.60;;;;;;9179065;19;20022;-73
2022/05/17 02:38:18;;;;;;;16.42;4.88;;;16.10;73.70;;;;;;9179157;19;20078;-74
2022/05/17 02:41:28;;;;;;;17.55;5.15;;;16.10;73.60;;;;;;9181061;19;20015;-73
2022/05/17 02:44:41;;;;;;;12.77;4.85;;;16.00;73.70;;;;;;9178847;19;20021;-74
2022/05/17 02:47:46;;;;;;;20.40;5.32;;;16.00;73.60;;;;;;9178549;19;20010;-74
2022/05/17 02:50:51;;;;;;;13.43;5.47;;;16.00;73.70;;;;;;9182284;19;20360;-76
2022/05/17 02:53:56;;;;;;;16.17;5.63;;;16.00;73.70;;;;;;9189243;19;20026;-76
2022/05/17 02:57:10;;;;;;;14.38;5.10;;;16.00;73.70;;;;;;9184945;19;20488;-73
2022/05/17 03:00:18;;;;;;;12.93;5.90;;;16.00;74.50;;;;;;9190252;19;20107;-73
2022/05/17 03:03:23;;;;;;;12.95;5.72;;;15.90;73.80;;;;;;9186947;19;20464;-73
2022/05/17 03:06:33;;;;;;;16.23;5.80;;;15.90;73.80;;;;;;9189600;19;20018;-75
2022/05/17 03:09:38;;;;;;;12.50;5.53;;;15.90;73.90;;;;;;9189711;19;20014;-76
2022/05/17 03:12:46;;;;;;;18.20;6.13;;;15.90;74.00;;;;;;9189564;19;20015;-75
2022/05/17 03:15:56;;;;;;;15.98;6.20;;;15.90;74.20;;;;;;9185966;19;20010;-75
2022/05/17 03:19:01;;;;;;;16.17;6.35;;;15.80;74.10;;;;;;9186930;19;20025;-73
2022/05/17 03:22:07;;;;;;;17.70;7.30;;;15.80;74.10;;;;;;9183879;19;20021;-73
2022/05/17 03:25:12;;;;;;;17.70;6.22;;;15.80;74.20;;;;;;9186475;19;20401;-73
2022/05/17 03:28:35;;;;;;;17.80;6.70;;;15.80;74.20;;;;;;9186124;19;20036;-74
2022/05/17 03:31:40;;;;;;;16.50;6.90;;;15.80;74.30;;;;;;9187621;19;20018;-75
2022/05/17 03:34:46;;;;;;;20.60;7.15;;;15.80;74.30;;;;;;9188348;19;20026;-74
2022/05/17 03:37:51;;;;;;;13.75;6.05;;;15.80;74.40;;;;;;9184802;19;20020;-74
2022/05/17 03:40:58;;;;;;;14.70;6.47;;;15.80;74.40;;;;;;9187238;19;20014;-75
2022/05/17 03:44:07;;;;;;;19.80;8.10;;;15.80;74.40;;;;;;9182669;19;20053;-73
2022/05/17 03:47:13;;;;;;;16.42;6.22;;;15.80;74.60;;;;;;9185605;19;20094;-75
2022/05/17 03:50:22;;;;;;;18.08;6.55;;;15.80;74.50;;;;;;9185720;19;20016;-76
2022/05/17 03:53:28;;;;;;;12.13;6.20;;;15.80;74.50;;;;;;9186020;19;20010;-73
2022/05/17 03:56:34;;;;;;;21.80;7.78;;;15.80;74.50;;;;;;9184625;19;20025;-73
2022/05/17 03:59:46;;;;;;;15.82;7.20;;;;;;;;;;9186285;19;20025;-74
2022/05/17 04:02:51;;;;;;;12.35;6.57;;;15.80;74.00;;;;;;9183676;19;20018;-75
2022/05/17 04:05:56;;;;;;;14.57;6.78;;;15.80;74.50;;;;;;9182601;19;20345;-74
2022/05/17 04:09:01;;;;;;;18.80;7.40;;;15.80;74.50;;;;;;9186112;19;20025;-73
2022/05/17 04:12:11;;;;;;;20.80;6.90;;;15.80;74.50;;;;;;9186205;19;20026;-73
2022/05/17 04:15:21;;;;;;;12.30;6.50;;;15.80;74.50;;;;;;9184821;19;20101;-73
2022/05/17 04:18:27;;;;;;;15.77;7.20;;;15.80;74.60;;;;;;9185167;19;20082;-73
2022/05/17 04:21:35;;;;;;;19.90;7.40;;;15.70;74.50;;;;;;9183933;19;20014;-72
2022/05/17 04:24:41;;;;;;;24.42;8.48;;;15.80;74.60;;;;;;9187461;19;20019;-73
2022/05/17 04:27:49;;;;;;;19.58;7.00;;;15.70;74.60;;;;;;9184224;19;20375;-73
2022/05/17 04:30:56;;;;;;;14.95;7.82;;;15.80;74.80;;;;;;9186351;19;20021;-73
2022/05/17 04:34:04;;;;;;;17.55;8.40;;;15.70;74.80;;;;;;9184593;19;20021;-73
2022/05/17 04:37:09;;;;;;;20.60;8.77;;;15.70;74.80;;;;;;9182385;19;20526;-72
2022/05/17 04:40:16;;;;;;;21.30;8.15;;;15.70;74.80;;;;;;9183219;19;20014;-74
2022/05/17 04:43:21;;;;;;;20.45;7.50;;;15.70;74.90;;;;;;9182139;19;20456;-73
2022/05/17 04:46:29;;;;;;;19.15;7.47;;;15.70;75.00;;;;;;9184911;19;20026;-74
2022/05/17 04:49:35;;;;;;;31.00;8.65;;;15.70;75.20;;;;;;9183516;19;20030;-74
2022/05/17 04:52:40;;;;;;;19.45;8.02;;;15.70;75.10;;;;;;9184892;19;20025;-73
2022/05/17 04:55:45;;;;;;;15.60;8.18;;;15.70;75.10;;;;;;9183587;19;20022;-75
2022/05/17 04:58:51;;;;;;;22.30;9.10;;;15.70;75.20;;;;;;9182813;19;20010;-74
2022/05/17 05:01:59;;;;;;;25.67;9.48;;;15.70;75.30;;;;;;9182552;19;20023;-74
2022/05/17 05:05:04;;;;;;;18.65;8.68;;;15.80;75.40;;;;;;9182196;19;20096;-73
2022/05/17 05:08:13;;;;;;;21.38;9.15;;;15.80;75.30;;;;;;9182529;19;20026;-72
2022/05/17 05:11:18;;;;;;;23.17;10.60;;;15.80;75.40;;;;;;9183157;19;20030;-72
2022/05/17 05:14:24;;;;;;;19.00;8.68;;;15.80;76.10;;;;;;9180606;19;20478;-73
2022/05/17 05:17:35;;;;;;;18.52;8.65;;;15.80;75.50;;;;;;9175692;19;20803;-74
2022/05/17 05:20:42;;;;;;;20.85;8.43;;;15.80;75.70;;;;;;9177072;19;20606;-73
2022/05/17 05:23:47;;;;;;;19.70;9.05;;;15.90;75.70;;;;;;9177075;19;20026;-72
2022/05/17 05:26:53;;;;;;;20.35;8.90;;;16.00;75.80;;;;;;9177278;19;20014;-75
2022/05/17 05:29:58;;;;;;;17.27;8.38;;;16.00;75.80;;;;;;9177017;19;20015;-75
2022/05/17 05:33:06;;;;;;;27.50;8.88;;;16.10;75.90;;;;;;9182259;19;20045;-74
2022/05/17 05:36:20;;;;;;;21.02;9.60;;;16.20;76.20;;;;;;9183076;19;20010;-75
2022/05/17 05:39:26;;;;;;;22.50;8.43;;;16.20;76.10;;;;;;9183083;19;20045;-73
2022/05/17 05:42:32;;;;;;;16.67;7.43;;;16.40;76.20;;;;;;9177665;19;20018;-74
2022/05/17 05:45:39;;;;;;;18.10;7.78;;;16.50;76.20;;;;;;9180862;19;20018;-75
2022/05/17 05:48:50;;;;;;;26.73;7.65;;;16.60;76.00;;;;;;9182974;19;20030;-73
2022/05/17 05:51:57;;;;;;;14.23;6.88;;;16.80;76.10;;;;;;9171660;19;20022;-73
2022/05/17 05:55:03;;;;;;;18.58;6.65;;;16.90;75.90;;;;;;9173263;19;20021;-75
2022/05/17 05:58:10;;;;;;;13.23;6.30;;;17.00;75.90;;;;;;9174645;19;20025;-74
2022/05/17 06:01:15;;;;;;;15.52;6.43;;;17.00;75.80;;;;;;9175562;19;20018;-73
2022/05/17 06:04:27;;;;;;;17.15;5.88;;;17.10;75.70;;;;;;9173879;19;20365;-73
2022/05/17 06:07:35;;;;;;;17.23;5.68;;;17.20;75.80;;;;;;9174215;19;20010;-74
2022/05/17 06:10:41;;;;;;;20.88;5.65;;;17.30;75.60;;;;;;9169533;19;20022;-72
2022/05/17 06:13:46;;;;;;;14.60;5.90;;;17.40;75.60;;;;;;9174805;19;20029;-72
2022/05/17 06:16:52;;;;;;;20.70;6.95;;;17.40;75.50;;;;;;9174653;19;20390;-70
2022/05/17 06:20:00;;;;;;;13.38;6.38;;;17.50;75.50;;;;;;9174142;19;20085;-71
2022/05/17 06:23:06;;;;;;;14.15;5.65;;;17.60;75.50;;;;;;9174496;19;20014;-71
2022/05/17 06:26:13;;;;;;;7.50;4.05;;;17.70;75.40;;;;;;9171440;19;20019;-72
2022/05/17 06:29:18;;;;;;;15.05;5.50;;;17.80;75.30;;;;;;9177423;19;20103;-72
2022/05/17 06:32:24;;;;;;;18.23;5.30;;;17.80;75.20;;;;;;9177090;19;20861;-71
2022/05/17 06:35:31;;;;;;;17.30;5.57;;;17.90;75.20;;;;;;9174574;19;20368;-71
2022/05/17 06:38:39;;;;;;;17.92;6.10;;;18.00;75.20;;;;;;9173150;19;20456;-72
2022/05/17 06:41:44;;;;;;;14.07;5.10;;;18.10;75.00;;;;;;9171410;19;20025;-71
2022/05/17 06:44:49;;;;;;;15.65;5.40;;;18.20;75.00;;;;;;9181180;19;20097;-71
2022/05/17 06:47:57;;;;;;;13.65;5.60;;;18.20;74.70;;;;;;9179801;19;20017;-69
2022/05/17 06:51:12;;;;;;;12.93;4.93;;;18.30;74.70;;;;;;9179660;19;20014;-70
2022/05/17 06:54:20;;;;;;;14.93;4.63;;;18.40;74.80;;;;;;9178937;19;20010;-71
2022/05/17 06:57:27;;;;;;;15.02;5.22;;;18.50;74.70;;;;;;9177755;19;20022;-70
2022/05/17 07:00:34;;;;;;;16.13;5.00;;;18.50;74.70;;;;;;9179929;19;20033;-70
2022/05/17 07:03:39;;;;;;;20.02;4.68;;;18.60;74.70;;;;;;9178407;19;20789;-72
2022/05/17 07:06:50;;;;;;;13.57;5.15;;;18.70;74.50;;;;;;9175651;19;20048;-72
2022/05/17 07:13:18;;;;;;;15.40;3.97;;;18.90;74.10;;;;;;9178244;19;20014;-73
2022/05/17 07:16:23;;;;;;;13.02;4.30;;;19.00;73.90;;;;;;9178426;19;20366;-73
2022/05/17 07:19:29;;;;;;;10.48;4.53;;;19.10;73.70;;;;;;9176731;19;20017;-72
2022/05/17 07:22:40;;;;;;;17.25;4.80;;;19.10;73.60;;;;;;9180539;19;20003;-72
2022/05/17 07:25:51;;;;;;;16.15;5.25;;;19.20;73.40;;;;;;9177519;19;20011;-72
2022/05/17 07:28:56;;;;;;;14.15;4.75;;;19.20;73.30;;;;;;9177835;19;20025;-72
2022/05/17 07:32:04;;;;;;;15.85;5.10;;;19.20;73.10;;;;;;9177912;19;20491;-71
2022/05/17 07:35:10;;;;;;;12.48;5.10;;;19.20;73.00;;;;;;9176585;19;20026;-71
2022/05/17 07:38:19;;;;;;;11.77;4.93;;;19.20;73.00;;;;;;9178190;19;20507;-71
2022/05/17 07:41:26;;;;;;;16.70;4.53;;;19.20;72.90;;;;;;9186633;19;20018;-73
2022/05/17 07:44:33;;;;;;;13.60;5.18;;;19.20;72.90;;;;;;9182840;19;20025;-70
2022/05/17 07:47:38;;;;;;;13.77;5.85;;;19.20;72.80;;;;;;9186623;19;20350;-70
2022/05/17 07:50:55;;;;;;;10.75;4.68;;;19.20;72.80;;;;;;9185790;19;20007;-74
2022/05/17 07:54:08;;;;;;;18.58;5.78;;;19.20;72.80;;;;;;9186231;19;20025;-74
2022/05/17 07:57:14;;;;;;;11.88;4.88;;;19.20;72.80;;;;;;9186584;19;20078;-76
2022/05/17 08:00:21;;;;;;;14.73;4.88;;;19.20;72.80;;;;;;9186978;19;20010;-74
2022/05/17 08:03:27;;;;;;;14.93;5.15;;;19.20;72.70;;;;;;9185835;19;20081;-74
2022/05/17 08:06:38;;;;;;;13.40;5.45;;;19.20;72.80;;;;;;9185502;19;20022;-74
2022/05/17 08:09:46;;;;;;;17.75;5.22;;;19.20;72.80;;;;;;9185294;19;20022;-72
2022/05/17 08:12:59;;;;;;;17.42;4.63;;;19.20;72.70;;;;;;9185969;19;20448;-73
2022/05/17 08:16:09;;;;;;;11.98;5.07;;;19.20;72.70;;;;;;9187104;19;20025;-73
2022/05/17 08:19:19;;;;;;;15.00;5.13;;;19.20;72.70;;;;;;9183874;19;20094;-74
2022/05/17 08:22:37;;;;;;;13.75;4.75;;;19.20;72.90;;;;;;9187830;19;20026;-74
2022/05/17 08:29:09;;;;;;;20.40;5.35;;;19.10;72.90;;;;;;9186059;19;20543;-73
2022/05/17 08:35:44;;;;;;;17.90;4.57;;;19.10;72.90;;;;;;9187401;19;20014;-74
2022/05/17 08:38:51;;;;;;;14.32;5.10;;;19.10;72.90;;;;;;9185946;19;20025;-73
2022/05/17 08:42:27;;;;;;;16.20;5.40;;;19.10;73.00;;;;;;9181066;19;20010;-75
2022/05/17 08:45:44;;;;;;;21.52;6.07;;;19.10;73.10;;;;;;9184315;19;20055;-73
2022/05/17 08:48:56;;;;;;;12.40;4.60;;;19.10;73.20;;;;;;9183378;19;20014;-73
2022/05/17 08:52:07;;;;;;;15.88;5.15;;;19.10;73.10;;;;;;9185907;19;20447;-74
2022/05/17 08:55:24;;;;;;;14.18;5.05;;;19.10;73.10;;;;;;9186954;19;20078;-74
2022/05/17 08:58:35;;;;;;;14.50;5.55;;;19.10;73.20;;;;;;9183864;19;20499;-74
2022/05/17 09:01:50;;;;;;;18.20;5.60;;;19.00;73.30;;;;;;9184909;19;20022;-73
2022/05/17 09:05:12;;;;;;;15.55;5.18;;;19.10;73.40;;;;;;9182878;19;20018;-73
2022/05/17 09:08:27;;;;;;;18.63;4.78;;;19.10;73.40;;;;;;9185071;19;20770;-74
2022/05/17 09:11:47;;;;;;;18.02;6.32;;;19.10;73.40;;;;;;9183391;19;20089;-74
2022/05/17 09:14:58;;;;;;;17.02;5.18;;;19.10;73.40;;;;;;9184591;19;20017;-74
2022/05/17 09:18:11;;;;;;;17.80;5.50;;;19.10;73.50;;;;;;9184138;19;20015;-74
2022/05/17 09:21:31;;;;;;;21.95;6.03;;;19.20;73.40;;;;;;9183477;19;20030;-69
2022/05/17 09:24:41;;;;;;;20.85;5.50;;;19.20;73.50;;;;;;9181569;19;20035;-74
2022/05/17 09:27:50;;;;;;;19.45;5.80;;;19.20;73.40;;;;;;9184553;19;20014;-73
2022/05/17 09:31:15;;;;;;;17.20;5.13;;;19.20;73.30;;;;;;9183236;19;20048;-74
2022/05/17 09:34:31;;;;;;;21.45;6.70;;;19.20;73.40;;;;;;9180748;19;20353;-73
2022/05/17 09:37:42;;;;;;;13.55;5.05;;;19.30;73.60;;;;;;9181359;19;20034;-73
2022/05/17 09:40:50;;;;;;;7.90;4.38;;;19.20;73.30;;;;;;9183657;19;20053;-72
2022/05/17 09:44:04;;;;;;;18.45;5.10;;;19.30;73.40;;;;;;9175916;19;20429;-73
2022/05/17 09:47:27;;;;;;;13.07;5.05;;;19.30;73.50;;;;;;9179041;19;20018;-73
2022/05/17 09:54:01;;;;;;;19.55;4.93;;;19.40;73.50;;;;;;9181376;19;20010;-74
2022/05/17 09:57:15;;;;;;;15.60;4.78;;;19.50;73.40;;;;;;9181955;19;20018;-75
2022/05/17 10:00:26;;;;;;;11.07;4.53;;;19.50;73.40;;;;;;9178473;19;20053;-74
2022/05/17 10:03:36;;;;;;;17.58;4.63;;;19.60;73.30;;;;;;9180083;19;20428;-74
2022/05/17 10:06:44;;;;;;;16.98;4.93;;;19.70;73.10;;;;;;9180587;19;20484;-72
2022/05/17 10:09:50;;;;;;;12.88;4.40;;;19.80;73.10;;;;;;9181164;19;20576;-73
2022/05/17 10:13:03;;;;;;;19.58;4.72;;;19.80;72.90;;;;;;9182421;19;20021;-73
2022/05/17 10:16:13;;;;;;;13.18;4.82;;;19.90;73.00;;;;;;9181938;19;20095;-72
2022/05/17 10:19:41;;;;;;;12.13;5.55;;;20.00;72.90;;;;;;9179315;19;20014;-73
2022/05/17 10:23:00;;;;;;;14.10;5.03;;;20.00;72.60;;;;;;9179090;19;20011;-74
2022/05/17 10:26:09;;;;;;;16.42;5.65;;;20.10;72.60;;;;;;9179426;19;20018;-73
2022/05/17 10:29:25;;;;;;;14.98;4.97;;;20.10;72.50;;;;;;9180349;19;20097;-73
2022/05/17 10:32:35;;;;;;;16.20;4.75;;;20.20;72.40;;;;;;9181107;19;20006;-73
2022/05/17 10:35:51;;;;;;;16.02;5.75;;;20.20;72.30;;;;;;9179244;19;20015;-72
2022/05/17 10:39:08;;;;;;;18.73;7.07;;;20.30;72.20;;;;;;9180073;19;20371;-73
2022/05/17 10:42:13;;;;;;;20.67;5.93;;;20.30;72.40;;;;;;9177796;19;20333;-73
2022/05/17 10:45:24;;;;;;;20.63;5.85;;;20.30;72.20;;;;;;9177325;19;20018;-74
2022/05/17 10:48:48;;;;;;;17.05;5.40;;;20.30;72.30;;;;;;9177295;19;20069;-73
2022/05/17 10:52:08;;;;;;;13.52;5.43;;;20.30;72.20;;;;;;9175865;19;20400;-73
2022/05/17 10:55:19;;;;;;;11.50;4.88;;;20.30;72.20;;;;;;9177562;19;20007;-72
2022/05/17 10:58:34;;;;;;;16.88;5.40;;;20.30;72.20;;;;;;9176173;19;20026;-73
2022/05/17 11:01:48;;;;;;;18.40;6.00;;;20.30;72.20;;;;;;9178271;19;20085;-73
2022/05/17 11:05:09;;;;;;;15.65;5.75;;;20.30;72.20;;;;;;9174952;19;20039;-73
2022/05/17 11:08:22;;;;;;;15.27;5.43;;;20.20;72.20;;;;;;9176588;19;20002;-73
2022/05/17 11:11:43;;;;;;;22.95;6.18;;;20.20;72.30;;;;;;9175904;19;20102;-74
2022/05/17 11:14:52;;;;;;;23.52;5.05;;;20.20;72.40;;;;;;9189412;19;20018;-72
2022/05/17 11:18:04;;;;;;;16.08;4.35;;;20.10;72.30;;;;;;9188971;19;20018;-72
2022/05/17 11:21:18;;;;;;;20.65;5.30;;;20.10;72.40;;;;;;9187085;19;20014;-73
2022/05/17 11:24:49;;;;;;;12.65;4.38;;;20.00;72.40;;;;;;9189377;19;20091;-73
2022/05/17 11:28:29;;;;;;;13.13;4.75;;;19.90;72.40;;;;;;9190136;19;20369;-73
2022/05/17 11:31:55;;;;;;;17.27;5.50;;;19.90;72.50;;;;;;9186878;19;20494;-73
2022/05/17 11:35:04;;;;;;;19.88;5.65;;;19.90;72.60;;;;;;9187065;19;20018;-72
2022/05/17 11:38:19;;;;;;;20.92;5.45;;;19.80;72.60;;;;;;9189296;19;20379;-72
2022/05/17 11:41:45;;;;;;;20.55;6.18;;;19.80;72.70;;;;;;9184488;19;20117;-74
2022/05/17 11:44:54;;;;;;;22.25;6.30;;;19.70;72.80;;;;;;9187044;19;20025;-73
2022/05/17 11:48:01;;;;;;;20.70;6.18;;;19.70;72.70;;;;;;9185918;19;20007;-74
2022/05/17 11:51:08;;;;;;;12.35;5.28;;;19.60;72.70;;;;;;9187119;19;20017;-72
2022/05/17 11:54:14;;;;;;;14.73;6.22;;;19.60;72.80;;;;;;9186692;19;20053;-74
2022/05/17 11:57:54;;;;;;;16.10;5.45;;;19.60;72.90;;;;;;9187010;19;20014;-72
2022/05/17 12:01:03;;;;;;;16.42;6.43;;;19.50;73.10;;;;;;9182829;19;20018;-73
2022/05/17 12:04:42;;;;;;;13.50;5.75;;;19.50;73.10;;;;;;9186095;19;20022;-74
2022/05/17 12:07:50;;;;;;;14.63;5.82;;;19.50;73.40;;;;;;9187628;19;20487;-73
2022/05/17 12:11:01;;;;;;;14.52;5.72;;;19.50;73.40;;;;;;9187719;19;20015;-73
2022/05/17 12:14:20;;;;;;;11.93;5.82;;;19.40;73.50;;;;;;9185502;19;20480;-73
2022/05/17 12:17:37;;;;;;;12.77;5.22;;;19.40;73.70;;;;;;9185820;19;20011;-72
2022/05/17 12:21:02;;;;;;;19.05;6.40;;;19.40;73.70;;;;;;9181558;19;20019;-74
2022/05/17 12:24:18;;;;;;;21.52;6.63;;;19.40;73.90;;;;;;9181483;19;20018;-75
2022/05/17 12:27:28;;;;;;;20.08;6.47;;;19.30;73.90;;;;;;9182564;19;20010;-72
2022/05/17 12:33:57;;;;;;;19.17;7.32;;;19.30;74.00;;;;;;9181171;19;20014;-73
2022/05/17 12:37:13;;;;;;;18.92;7.28;;;19.40;74.20;;;;;;9183077;19;20025;-73
2022/05/17 12:43:38;;;;;;;14.85;7.07;;;19.50;74.40;;;;;;9177655;19;20099;-73
2022/05/17 12:46:44;;;;;;;19.20;6.95;;;19.50;74.40;;;;;;9183081;19;20125;-74
2022/05/17 12:49:56;;;;;;;15.35;6.93;;;19.50;74.40;;;;;;9184265;19;20006;-74
2022/05/17 12:53:04;;;;;;;11.38;5.72;;;19.60;74.60;;;;;;9183944;19;20060;-72
2022/05/17 12:56:12;;;;;;;11.50;5.68;;;19.70;74.60;;;;;;9186465;19;20010;-74
2022/05/17 12:59:27;;;;;;;12.43;5.10;;;19.80;74.70;;;;;;9185975;19;20391;-72
2022/05/17 13:02:43;;;;;;;13.80;5.15;;;19.90;74.60;;;;;;9185946;19;20484;-72
2022/05/17 13:05:51;;;;;;;8.15;4.97;;;20.00;74.40;;;;;;9182227;19;20029;-73
2022/05/17 13:09:05;;;;;;;11.55;4.70;;;20.10;74.20;;;;;;9183978;19;20048;-74
2022/05/17 13:12:16;;;;;;;9.82;4.05;;;20.30;74.20;;;;;;9183295;19;20019;-74
2022/05/17 13:15:23;;;;;;;8.75;4.15;;;20.40;74.10;;;;;;9183265;19;20030;-75
2022/05/17 13:18:38;;;;;;;13.00;4.05;;;20.60;73.80;;;;;;9183399;19;20011;-74
2022/05/17 13:21:48;;;;;;;12.05;4.15;;;20.80;73.80;;;;;;9182000;19;20015;-75
2022/05/17 13:25:04;;;;;;;9.35;3.47;;;21.00;73.70;;;;;;9183889;19;20014;-75
2022/05/17 13:28:24;;;;;;;12.57;4.53;;;21.10;73.30;;;;;;9182235;19;20021;-75
2022/05/17 13:31:31;;;;;;;9.20;3.40;;;21.30;73.00;;;;;;9180478;19;20021;-74
2022/05/17 13:34:39;;;;;;;12.15;3.20;;;21.40;72.90;;;;;;9178192;19;20019;-74
2022/05/17 13:38:02;;;;;;;7.20;3.33;;;21.60;72.60;;;;;;9178794;19;20024;-75
2022/05/17 13:41:27;;;;;;;7.95;3.42;;;21.70;72.30;;;;;;9179905;19;20025;-75
2022/05/17 13:44:35;;;;;;;8.65;3.63;;;21.90;72.10;;;;;;9177466;19;20011;-75
2022/05/17 13:47:42;;;;;;;4.10;2.63;;;22.00;71.90;;;;;;9182253;19;20022;-75
2022/05/17 13:50:57;;;;;;;10.35;2.83;;;22.10;71.80;;;;;;9181654;19;20010;-73
2022/05/17 13:54:08;;;;;;;4.78;3.15;;;22.20;71.50;;;;;;9181856;19;20444;-75
2022/05/17 13:57:22;;;;;;;6.85;3.20;;;22.30;71.30;;;;;;9181615;19;20015;-75
2022/05/17 14:00:30;;;;;;;7.07;2.78;;;22.40;71.10;;;;;;9181316;19;20026;-75
2022/05/17 14:03:38;;;;;;;5.28;2.70;;;22.50;71.10;;;;;;9183262;19;20018;-75
2022/05/17 14:06:54;;;;;;;5.85;2.72;;;22.50;71.00;;;;;;9182883;19;20018;-75
2022/05/17 14:13:46;;;;;;;9.38;2.67;;;22.70;71.30;;;;;;9181227;19;20416;-76
2022/05/17 14:16:56;;;;;;;4.75;2.00;;;22.70;70.50;;;;;;9181273;19;20022;-75
2022/05/17 14:20:02;;;;;;;8.27;2.55;;;22.80;70.30;;;;;;9180475;19;20018;-75
2022/05/17 14:23:12;;;;;;;6.60;2.58;;;22.80;70.30;;;;;;9182301;19;20034;-75
2022/05/17 14:26:18;;;;;;;9.23;3.15;;;22.90;70.20;;;;;;9180304;19;20010;-75
2022/05/17 14:29:30;;;;;;;6.93;2.90;;;23.00;70.00;;;;;;9181025;19;20028;-74
2022/05/17 14:32:37;;;;;;;7.57;2.83;;;23.00;69.70;;;;;;9181105;19;20031;-75
2022/05/17 14:35:45;;;;;;;9.95;2.85;;;23.10;69.60;;;;;;9180133;19;20032;-74
2022/05/17 14:38:51;;;;;;;7.90;3.35;;;23.10;69.40;;;;;;9181934;19;20336;-75
2022/05/17 14:42:21;;;;;;;6.57;2.47;;;23.10;69.20;;;;;;9175147;19;20022;-75
2022/05/17 14:45:29;;;;;;;9.18;2.42;;;23.20;69.10;;;;;;9180000;19;20104;-75
2022/05/17 14:48:35;;;;;;;4.90;2.65;;;23.20;69.00;;;;;;9183588;19;20021;-75
2022/05/17 14:51:45;;;;;;;7.75;2.47;;;23.20;68.90;;;;;;9185931;19;20017;-74
2022/05/17 14:54:52;;;;;;;7.38;2.40;;;23.30;68.70;;;;;;9184945;19;20055;-75
2022/05/17 14:57:57;;;;;;;4.50;2.20;;;23.30;68.70;;;;;;9186410;19;20011;-74
2022/05/17 15:01:07;;;;;;;10.18;2.70;;;23.30;68.60;;;;;;9184375;19;20018;-74
2022/05/17 15:04:14;;;;;;;7.32;3.15;;;23.40;68.50;;;;;;9184756;19;20726;-74
2022/05/17 15:07:23;;;;;;;5.05;2.38;;;23.40;68.40;;;;;;9183376;19;20018;-74
2022/05/17 15:10:33;;;;;;;8.30;2.88;;;23.40;68.30;;;;;;9180567;19;20053;-75
2022/05/17 15:13:41;;;;;;;10.73;3.28;;;23.40;68.20;;;;;;9180931;19;21000;-75
2022/05/17 15:16:52;;;;;;;9.63;2.75;;;23.50;68.10;;;;;;9182218;19;20495;-74
2022/05/17 15:20:04;;;;;;;8.23;3.00;;;23.50;68.00;;;;;;9173637;19;20014;-74
2022/05/17 15:23:13;;;;;;;10.48;3.10;;;23.50;68.00;;;;;;9173458;19;20023;-74
2022/05/17 15:26:20;;;;;;;5.55;3.33;;;23.50;67.80;;;;;;9176391;19;20015;-74
2022/05/17 15:29:26;;;;;;;9.88;3.22;;;23.50;67.80;;;;;;9176634;19;20022;-72
2022/05/17 15:32:38;;;;;;;7.28;2.67;;;23.60;67.60;;;;;;9173346;19;20018;-74
2022/05/17 15:35:43;;;;;;;6.78;3.00;;;23.60;67.50;;;;;;9176198;19;20652;-73
2022/05/17 15:38:50;;;;;;;14.85;3.20;;;23.60;67.50;;;;;;9174960;19;20667;-74
2022/05/17 15:41:59;;;;;;;12.35;3.33;;;23.60;67.20;;;;;;9171900;19;20029;-71
2022/05/17 15:45:04;;;;;;;9.52;3.33;;;23.60;67.10;;;;;;9176196;19;20014;-73
2022/05/17 15:55:12;;;;;;;9.77;3.10;;;23.70;66.90;;;;;;9172170;19;20135;-72
2022/05/17 15:58:20;;;;;;;10.32;3.53;;;23.80;66.70;;;;;;9178604;19;20046;-71
2022/05/17 16:01:28;;;;;;;9.77;3.33;;;23.80;66.80;;;;;;9179143;19;20034;-71
2022/05/17 16:08:11;;;;;;;13.40;3.83;;;23.80;66.20;;;;;;9183537;19;20487;-69
2022/05/17 16:14:45;;;;;;;14.88;3.83;;;23.80;66.00;;;;;;9181387;19;20018;-73
2022/05/17 16:17:59;;;;;;;8.65;3.17;;;23.80;65.90;;;;;;9179228;19;20113;-74
2022/05/17 16:21:07;;;;;;;17.60;4.13;;;23.70;65.60;;;;;;9176052;19;20037;-71
2022/05/17 16:24:12;;;;;;;10.98;3.63;;;23.70;65.50;;;;;;9167990;19;20018;-73
2022/05/17 16:27:19;;;;;;;7.82;3.28;;;23.70;65.60;;;;;;9168119;19;20074;-74
2022/05/17 16:30:45;;;;;;;7.53;2.92;;;23.70;65.50;;;;;;9175936;19;20014;-72
2022/05/17 16:33:55;;;;;;;13.15;3.70;;;23.60;65.50;;;;;;9172088;19;20019;-74
2022/05/17 16:37:03;;;;;;;14.02;3.30;;;23.60;65.50;;;;;;9168047;19;20022;-72
2022/05/17 16:40:12;;;;;;;8.32;3.03;;;23.60;65.20;;;;;;9166940;19;20019;-71
2022/05/17 16:43:17;;;;;;;11.15;3.28;;;23.60;65.20;;;;;;9162448;19;20033;-72
2022/05/17 16:46:31;;;;;;;10.80;3.40;;;23.60;65.20;;;;;;9173857;19;20061;-72
2022/05/17 16:49:37;;;;;;;11.70;3.20;;;23.50;65.30;;;;;;9171065;19;20018;-73
2022/05/17 16:52:47;;;;;;;17.40;2.80;;;23.60;65.30;;;;;;9171016;19;20036;-71
2022/05/17 16:55:53;;;;;;;9.98;3.35;;;23.50;65.10;;;;;;9170348;19;20026;-72
2022/05/17 16:58:58;;;;;;;9.75;3.15;;;23.50;65.20;;;;;;9164558;19;20022;-70